sensor_id;sensor_type;location;lat;lon;timestamp;temperature;humidity
45383;DHT22;42455;51.660;5.824;2024-03-22T00:01:06;13.4;93.0
45383;DHT22;42455;51.660;5.824;2024-03-22T00:06:12;13.5;93.5
45383;DHT22;42455;51.660;5.824;2024-03-22T00:11:19;13.5;93.5
45383;DHT22;42455;51.660;5.824;2024-03-22T00:16:25;13.5;93.5
45383;DHT22;42455;51.660;5.824;2024-03-22T00:21:31;13.5;93.5
45383;DHT22;42455;51.660;5.824;2024-03-22T00:26:37;13.6;94.0
45383;DHT22;42455;51.660;5.824;2024-03-22T00:31:44;13.6;94.0
45383;DHT22;42455;51.660;5.824;2024-03-22T00:36:50;13.7;94.0
45383;DHT22;42455;51.660;5.824;2024-03-22T00:41:56;13.7;94.5
45383;DHT22;42455;51.660;5.824;2024-03-22T00:47:02;13.7;94.5
45383;DHT22;42455;51.660;5.824;2024-03-22T00:52:08;13.8;94.5
45383;DHT22;42455;51.660;5.824;2024-03-22T00:57:15;13.8;94.5
45383;DHT22;42455;51.660;5.824;2024-03-22T01:02:21;13.9;94.5
45383;DHT22;42455;51.660;5.824;2024-03-22T01:07:27;13.9;94.5
45383;DHT22;42455;51.660;5.824;2024-03-22T01:12:33;14.0;94.5
45383;DHT22;42455;51.660;5.824;2024-03-22T01:17:39;14.0;94.5
45383;DHT22;42455;51.660;5.824;2024-03-22T01:22:46;14.0;94.5
45383;DHT22;42455;51.660;5.824;2024-03-22T01:27:52;14.0;95.0
45383;DHT22;42455;51.660;5.824;2024-03-22T01:32:58;14.1;94.5
45383;DHT22;42455;51.660;5.824;2024-03-22T01:38:04;14.1;94.5
45383;DHT22;42455;51.660;5.824;2024-03-22T01:43:11;14.1;94.5
45383;DHT22;42455;51.660;5.824;2024-03-22T01:48:17;14.1;95.0
45383;DHT22;42455;51.660;5.824;2024-03-22T01:53:23;14.1;95.0
45383;DHT22;42455;51.660;5.824;2024-03-22T01:58:29;14.1;95.0
45383;DHT22;42455;51.660;5.824;2024-03-22T02:03:35;14.1;95.0
45383;DHT22;42455;51.660;5.824;2024-03-22T02:08:42;14.1;95.0
45383;DHT22;42455;51.660;5.824;2024-03-22T02:13:48;14.1;95.0
45383;DHT22;42455;51.660;5.824;2024-03-22T02:18:54;14.1;95.0
45383;DHT22;42455;51.660;5.824;2024-03-22T02:24:00;14.1;95.0
45383;DHT22;42455;51.660;5.824;2024-03-22T02:29:05;14.1;95.0
45383;DHT22;42455;51.660;5.824;2024-03-22T02:34:12;14.1;95.0
45383;DHT22;42455;51.660;5.824;2024-03-22T02:39:18;14.1;95.0
45383;DHT22;42455;51.660;5.824;2024-03-22T02:44:24;14.1;95.0
45383;DHT22;42455;51.660;5.824;2024-03-22T02:49:30;14.1;95.0
45383;DHT22;42455;51.660;5.824;2024-03-22T02:54:37;14.1;95.0
45383;DHT22;42455;51.660;5.824;2024-03-22T02:59:42;14.1;95.0
45383;DHT22;42455;51.660;5.824;2024-03-22T03:04:48;14.1;95.0
45383;DHT22;42455;51.660;5.824;2024-03-22T03:09:54;14.1;95.0
45383;DHT22;42455;51.660;5.824;2024-03-22T03:15:00;14.1;95.0
45383;DHT22;42455;51.660;5.824;2024-03-22T03:20:07;14.1;95.0
45383;DHT22;42455;51.660;5.824;2024-03-22T03:25:13;14.1;95.0
45383;DHT22;42455;51.660;5.824;2024-03-22T03:30:19;14.1;95.0
45383;DHT22;42455;51.660;5.824;2024-03-22T03:35:25;14.1;95.0
45383;DHT22;42455;51.660;5.824;2024-03-22T03:40:31;14.1;95.0
45383;DHT22;42455;51.660;5.824;2024-03-22T03:45:38;14.0;95.0
45383;DHT22;42455;51.660;5.824;2024-03-22T03:50:50;14.0;95.0
45383;DHT22;42455;51.660;5.824;2024-03-22T03:55:50;14.0;95.0
45383;DHT22;42455;51.660;5.824;2024-03-22T04:00:56;14.0;95.0
45383;DHT22;42455;51.660;5.824;2024-03-22T04:06:02;13.9;95.0
45383;DHT22;42455;51.660;5.824;2024-03-22T04:11:09;13.9;95.0
45383;DHT22;42455;51.660;5.824;2024-03-22T04:16:15;13.9;95.0
45383;DHT22;42455;51.660;5.824;2024-03-22T04:21:21;13.9;95.0
45383;DHT22;42455;51.660;5.824;2024-03-22T04:26:27;13.9;95.0
45383;DHT22;42455;51.660;5.824;2024-03-22T04:31:34;13.9;95.0
45383;DHT22;42455;51.660;5.824;2024-03-22T04:36:40;13.8;95.0
45383;DHT22;42455;51.660;5.824;2024-03-22T04:41:46;13.8;95.0
45383;DHT22;42455;51.660;5.824;2024-03-22T04:46:52;13.8;95.0
45383;DHT22;42455;51.660;5.824;2024-03-22T04:51:58;13.8;95.0
45383;DHT22;42455;51.660;5.824;2024-03-22T04:57:05;13.8;95.0
45383;DHT22;42455;51.660;5.824;2024-03-22T05:02:11;13.8;95.0
45383;DHT22;42455;51.660;5.824;2024-03-22T05:07:17;13.8;95.0
45383;DHT22;42455;51.660;5.824;2024-03-22T05:12:23;13.8;95.0
45383;DHT22;42455;51.660;5.824;2024-03-22T05:17:30;13.8;95.0
45383;DHT22;42455;51.660;5.824;2024-03-22T05:22:36;13.7;95.0
45383;DHT22;42455;51.660;5.824;2024-03-22T05:27:42;13.7;95.0
45383;DHT22;42455;51.660;5.824;2024-03-22T05:32:48;13.7;95.0
45383;DHT22;42455;51.660;5.824;2024-03-22T05:37:54;13.7;95.0
45383;DHT22;42455;51.660;5.824;2024-03-22T05:43:01;13.6;95.0
45383;DHT22;42455;51.660;5.824;2024-03-22T05:48:07;13.6;95.0
45383;DHT22;42455;51.660;5.824;2024-03-22T05:53:13;13.6;95.0
45383;DHT22;42455;51.660;5.824;2024-03-22T05:58:19;13.6;95.0
45383;DHT22;42455;51.660;5.824;2024-03-22T06:03:25;13.6;95.0
45383;DHT22;42455;51.660;5.824;2024-03-22T06:08:32;13.6;95.0
45383;DHT22;42455;51.660;5.824;2024-03-22T06:13:38;13.5;95.0
45383;DHT22;42455;51.660;5.824;2024-03-22T06:18:44;13.5;95.0
45383;DHT22;42455;51.660;5.824;2024-03-22T06:23:51;13.5;95.0
45383;DHT22;42455;51.660;5.824;2024-03-22T06:28:57;13.6;95.0
45383;DHT22;42455;51.660;5.824;2024-03-22T06:34:03;13.6;95.0
45383;DHT22;42455;51.660;5.824;2024-03-22T06:39:09;13.6;95.0
45383;DHT22;42455;51.660;5.824;2024-03-22T06:44:15;13.6;95.0
45383;DHT22;42455;51.660;5.824;2024-03-22T06:49:21;13.6;94.5
45383;DHT22;42455;51.660;5.824;2024-03-22T06:54:28;13.6;94.5
45383;DHT22;42455;51.660;5.824;2024-03-22T06:59:34;13.6;94.5
45383;DHT22;42455;51.660;5.824;2024-03-22T07:04:40;13.6;94.5
45383;DHT22;42455;51.660;5.824;2024-03-22T07:09:46;13.6;94.5
45383;DHT22;42455;51.660;5.824;2024-03-22T07:14:53;13.7;94.5
45383;DHT22;42455;51.660;5.824;2024-03-22T07:19:59;13.7;94.5
45383;DHT22;42455;51.660;5.824;2024-03-22T07:25:05;13.7;94.0
45383;DHT22;42455;51.660;5.824;2024-03-22T07:30:11;13.7;94.0
45383;DHT22;42455;51.660;5.824;2024-03-22T07:35:17;13.7;94.0
45383;DHT22;42455;51.660;5.824;2024-03-22T07:40:23;13.8;94.0
45383;DHT22;42455;51.660;5.824;2024-03-22T07:45:30;13.9;94.5
45383;DHT22;42455;51.660;5.824;2024-03-22T07:50:36;14.0;94.0
45383;DHT22;42455;51.660;5.824;2024-03-22T07:55:42;14.1;93.5
45383;DHT22;42455;51.660;5.824;2024-03-22T08:00:48;14.2;93.5
45383;DHT22;42455;51.660;5.824;2024-03-22T08:05:55;14.3;93.5
45383;DHT22;42455;51.660;5.824;2024-03-22T08:11:01;14.4;93.5
45383;DHT22;42455;51.660;5.824;2024-03-22T08:16:07;14.4;93.0
45383;DHT22;42455;51.660;5.824;2024-03-22T08:21:13;14.4;93.0
45383;DHT22;42455;51.660;5.824;2024-03-22T08:26:19;14.4;92.5
45383;DHT22;42455;51.660;5.824;2024-03-22T08:31:25;14.4;92.5
45383;DHT22;42455;51.660;5.824;2024-03-22T08:36:31;14.4;92.5
45383;DHT22;42455;51.660;5.824;2024-03-22T08:41:37;14.5;92.5
45383;DHT22;42455;51.660;5.824;2024-03-22T08:46:43;14.5;92.5
45383;DHT22;42455;51.660;5.824;2024-03-22T08:51:49;14.5;92.0
45383;DHT22;42455;51.660;5.824;2024-03-22T08:56:56;14.5;92.0
45383;DHT22;42455;51.660;5.824;2024-03-22T09:02:02;14.5;92.0
45383;DHT22;42455;51.660;5.824;2024-03-22T09:07:08;14.5;92.0
45383;DHT22;42455;51.660;5.824;2024-03-22T09:12:14;14.6;92.0
45383;DHT22;42455;51.660;5.824;2024-03-22T09:17:21;14.6;92.0
45383;DHT22;42455;51.660;5.824;2024-03-22T09:22:27;14.6;92.0
45383;DHT22;42455;51.660;5.824;2024-03-22T09:27:33;14.6;91.5
45383;DHT22;42455;51.660;5.824;2024-03-22T09:32:39;14.6;91.5
45383;DHT22;42455;51.660;5.824;2024-03-22T09:37:45;14.6;91.5
45383;DHT22;42455;51.660;5.824;2024-03-22T09:42:52;14.6;91.5
45383;DHT22;42455;51.660;5.824;2024-03-22T09:47:58;14.6;91.5
45383;DHT22;42455;51.660;5.824;2024-03-22T09:53:05;14.6;91.5
45383;DHT22;42455;51.660;5.824;2024-03-22T09:58:10;14.6;91.5
45383;DHT22;42455;51.660;5.824;2024-03-22T10:03:16;14.6;91.5
45383;DHT22;42455;51.660;5.824;2024-03-22T10:08:23;14.6;91.5
45383;DHT22;42455;51.660;5.824;2024-03-22T10:13:29;14.6;91.0
45383;DHT22;42455;51.660;5.824;2024-03-22T10:18:35;14.6;91.0
45383;DHT22;42455;51.660;5.824;2024-03-22T10:23:41;14.6;91.0
45383;DHT22;42455;51.660;5.824;2024-03-22T10:28:47;14.6;91.0
45383;DHT22;42455;51.660;5.824;2024-03-22T10:33:54;14.6;91.0
45383;DHT22;42455;51.660;5.824;2024-03-22T10:39:00;14.6;91.0
45383;DHT22;42455;51.660;5.824;2024-03-22T10:44:06;14.6;91.0
45383;DHT22;42455;51.660;5.824;2024-03-22T10:49:15;14.6;90.5
45383;DHT22;42455;51.660;5.824;2024-03-22T10:54:20;14.6;90.5
45383;DHT22;42455;51.660;5.824;2024-03-22T10:59:25;14.6;90.5
45383;DHT22;42455;51.660;5.824;2024-03-22T11:04:32;14.6;90.5
45383;DHT22;42455;51.660;5.824;2024-03-22T11:09:37;14.6;90.5
45383;DHT22;42455;51.660;5.824;2024-03-22T11:14:43;14.6;90.5
45383;DHT22;42455;51.660;5.824;2024-03-22T11:19:50;14.6;90.5
45383;DHT22;42455;51.660;5.824;2024-03-22T11:24:56;14.5;90.5
45383;DHT22;42455;51.660;5.824;2024-03-22T11:30:02;14.5;90.5
45383;DHT22;42455;51.660;5.824;2024-03-22T11:35:09;14.5;91.0
45383;DHT22;42455;51.660;5.824;2024-03-22T11:40:14;14.5;91.0
45383;DHT22;42455;51.660;5.824;2024-03-22T11:45:21;14.4;91.0
45383;DHT22;42455;51.660;5.824;2024-03-22T11:50:27;14.4;91.0
45383;DHT22;42455;51.660;5.824;2024-03-22T11:55:35;14.4;91.5
45383;DHT22;42455;51.660;5.824;2024-03-22T12:00:39;14.4;91.5
45383;DHT22;42455;51.660;5.824;2024-03-22T12:05:45;14.3;91.5
45383;DHT22;42455;51.660;5.824;2024-03-22T12:10:52;14.3;91.5
45383;DHT22;42455;51.660;5.824;2024-03-22T12:15:58;14.2;92.0
45383;DHT22;42455;51.660;5.824;2024-03-22T12:21:04;14.1;92.5
45383;DHT22;42455;51.660;5.824;2024-03-22T12:26:10;14.1;92.5
45383;DHT22;42455;51.660;5.824;2024-03-22T12:31:17;14.0;93.0
45383;DHT22;42455;51.660;5.824;2024-03-22T12:36:23;14.0;93.0
45383;DHT22;42455;51.660;5.824;2024-03-22T12:41:29;14.0;93.0
45383;DHT22;42455;51.660;5.824;2024-03-22T12:46:35;13.9;93.5
45383;DHT22;42455;51.660;5.824;2024-03-22T12:51:41;13.9;94.0
45383;DHT22;42455;51.660;5.824;2024-03-22T12:56:48;13.9;94.0
45383;DHT22;42455;51.660;5.824;2024-03-22T13:01:54;13.9;94.0
45383;DHT22;42455;51.660;5.824;2024-03-22T13:07:00;13.9;94.0
45383;DHT22;42455;51.660;5.824;2024-03-22T13:12:06;13.9;94.0
45383;DHT22;42455;51.660;5.824;2024-03-22T13:17:12;13.8;94.5
45383;DHT22;42455;51.660;5.824;2024-03-22T13:22:19;13.8;94.5
45383;DHT22;42455;51.660;5.824;2024-03-22T13:27:25;13.8;94.5
45383;DHT22;42455;51.660;5.824;2024-03-22T13:32:31;13.8;95.0
45383;DHT22;42455;51.660;5.824;2024-03-22T13:37:37;13.8;95.0
45383;DHT22;42455;51.660;5.824;2024-03-22T13:42:43;13.8;95.0
45383;DHT22;42455;51.660;5.824;2024-03-22T13:47:50;13.7;95.0
45383;DHT22;42455;51.660;5.824;2024-03-22T13:52:56;13.7;95.5
45383;DHT22;42455;51.660;5.824;2024-03-22T13:58:02;13.7;95.5
45383;DHT22;42455;51.660;5.824;2024-03-22T14:03:08;13.7;95.5
45383;DHT22;42455;51.660;5.824;2024-03-22T14:08:14;13.7;96.0
45383;DHT22;42455;51.660;5.824;2024-03-22T14:13:20;13.8;96.0
45383;DHT22;42455;51.660;5.824;2024-03-22T14:18:26;13.7;96.0
45383;DHT22;42455;51.660;5.824;2024-03-22T14:23:32;13.7;96.0
45383;DHT22;42455;51.660;5.824;2024-03-22T14:28:39;13.7;96.0
45383;DHT22;42455;51.660;5.824;2024-03-22T14:33:45;13.6;96.0
45383;DHT22;42455;51.660;5.824;2024-03-22T14:38:51;13.5;95.5
45383;DHT22;42455;51.660;5.824;2024-03-22T14:43:57;13.4;96.0
45383;DHT22;42455;51.660;5.824;2024-03-22T14:49:03;13.3;96.0
45383;DHT22;42455;51.660;5.824;2024-03-22T14:54:10;13.3;96.0
45383;DHT22;42455;51.660;5.824;2024-03-22T14:59:16;13.2;96.0
45383;DHT22;42455;51.660;5.824;2024-03-22T15:04:22;13.2;96.0
45383;DHT22;42455;51.660;5.824;2024-03-22T15:09:28;13.2;96.5
45383;DHT22;42455;51.660;5.824;2024-03-22T15:14:34;13.2;96.5
45383;DHT22;42455;51.660;5.824;2024-03-22T15:19:41;13.2;96.5
45383;DHT22;42455;51.660;5.824;2024-03-22T15:24:47;13.2;96.5
45383;DHT22;42455;51.660;5.824;2024-03-22T15:29:53;13.2;96.5
45383;DHT22;42455;51.660;5.824;2024-03-22T15:34:59;13.2;96.5
45383;DHT22;42455;51.660;5.824;2024-03-22T15:45:12;13.2;97.0
45383;DHT22;42455;51.660;5.824;2024-03-22T15:50:18;13.2;97.0
45383;DHT22;42455;51.660;5.824;2024-03-22T15:55:24;13.2;97.0
45383;DHT22;42455;51.660;5.824;2024-03-22T16:00:30;13.1;97.0
45383;DHT22;42455;51.660;5.824;2024-03-22T16:05:48;13.1;96.5
45383;DHT22;42455;51.660;5.824;2024-03-22T16:10:43;13.0;97.0
45383;DHT22;42455;51.660;5.824;2024-03-22T16:15:49;12.8;96.5
45383;DHT22;42455;51.660;5.824;2024-03-22T16:20:55;12.8;96.5
45383;DHT22;42455;51.660;5.824;2024-03-22T16:26:01;12.7;97.0
45383;DHT22;42455;51.660;5.824;2024-03-22T16:31:08;12.6;97.0
45383;DHT22;42455;51.660;5.824;2024-03-22T16:36:14;12.6;97.0
45383;DHT22;42455;51.660;5.824;2024-03-22T16:41:20;12.5;97.0
45383;DHT22;42455;51.660;5.824;2024-03-22T16:46:26;12.5;97.0
45383;DHT22;42455;51.660;5.824;2024-03-22T16:51:32;12.4;97.0
45383;DHT22;42455;51.660;5.824;2024-03-22T16:56:39;12.4;97.0
45383;DHT22;42455;51.660;5.824;2024-03-22T17:01:45;12.4;97.0
45383;DHT22;42455;51.660;5.824;2024-03-22T17:06:51;12.3;97.0
45383;DHT22;42455;51.660;5.824;2024-03-22T17:11:57;12.3;97.0
45383;DHT22;42455;51.660;5.824;2024-03-22T17:17:04;12.2;97.0
45383;DHT22;42455;51.660;5.824;2024-03-22T17:22:10;12.2;97.0
45383;DHT22;42455;51.660;5.824;2024-03-22T17:27:16;12.2;97.0
45383;DHT22;42455;51.660;5.824;2024-03-22T17:32:22;12.1;97.0
45383;DHT22;42455;51.660;5.824;2024-03-22T17:37:29;12.2;97.0
45383;DHT22;42455;51.660;5.824;2024-03-22T17:42:34;12.1;97.0
45383;DHT22;42455;51.660;5.824;2024-03-22T17:47:41;12.1;97.0
45383;DHT22;42455;51.660;5.824;2024-03-22T17:52:47;12.2;97.5
45383;DHT22;42455;51.660;5.824;2024-03-22T17:57:53;12.2;97.5
45383;DHT22;42455;51.660;5.824;2024-03-22T18:02:59;12.1;97.5
45383;DHT22;42455;51.660;5.824;2024-03-22T18:08:06;12.1;97.5
45383;DHT22;42455;51.660;5.824;2024-03-22T18:13:12;12.0;97.5
45383;DHT22;42455;51.660;5.824;2024-03-22T18:18:18;12.0;97.5
45383;DHT22;42455;51.660;5.824;2024-03-22T18:23:24;11.9;97.5
45383;DHT22;42455;51.660;5.824;2024-03-22T18:28:30;11.8;97.5
45383;DHT22;42455;51.660;5.824;2024-03-22T18:33:37;11.7;97.0
45383;DHT22;42455;51.660;5.824;2024-03-22T18:38:43;11.6;97.0
45383;DHT22;42455;51.660;5.824;2024-03-22T18:43:49;11.5;97.0
45383;DHT22;42455;51.660;5.824;2024-03-22T18:48:55;11.4;97.0
45383;DHT22;42455;51.660;5.824;2024-03-22T18:54:01;11.3;97.0
45383;DHT22;42455;51.660;5.824;2024-03-22T18:59:08;11.3;97.0
45383;DHT22;42455;51.660;5.824;2024-03-22T19:04:14;11.2;97.0
45383;DHT22;42455;51.660;5.824;2024-03-22T19:09:20;11.2;97.0
45383;DHT22;42455;51.660;5.824;2024-03-22T19:14:26;11.1;97.0
45383;DHT22;42455;51.660;5.824;2024-03-22T19:19:32;11.1;97.0
45383;DHT22;42455;51.660;5.824;2024-03-22T19:24:39;11.1;97.0
45383;DHT22;42455;51.660;5.824;2024-03-22T19:29:45;11.1;97.0
45383;DHT22;42455;51.660;5.824;2024-03-22T19:34:50;11.1;97.0
45383;DHT22;42455;51.660;5.824;2024-03-22T19:39:56;11.1;97.0
45383;DHT22;42455;51.660;5.824;2024-03-22T19:45:03;11.1;97.0
45383;DHT22;42455;51.660;5.824;2024-03-22T19:50:09;11.1;97.0
45383;DHT22;42455;51.660;5.824;2024-03-22T19:55:15;11.1;97.0
45383;DHT22;42455;51.660;5.824;2024-03-22T20:00:21;11.0;97.0
45383;DHT22;42455;51.660;5.824;2024-03-22T20:05:26;11.0;97.0
45383;DHT22;42455;51.660;5.824;2024-03-22T20:10:33;11.0;97.0
45383;DHT22;42455;51.660;5.824;2024-03-22T20:15:39;11.0;97.0
45383;DHT22;42455;51.660;5.824;2024-03-22T20:20:45;11.0;97.0
45383;DHT22;42455;51.660;5.824;2024-03-22T20:25:51;10.9;97.0
45383;DHT22;42455;51.660;5.824;2024-03-22T20:30:57;10.9;97.0
45383;DHT22;42455;51.660;5.824;2024-03-22T20:36:04;10.9;97.0
